Time;durP1;ratioP1;P1;durP2;ratioP2;P2;SDS_P1;SDS_P2;PMS_P1;PMS_P2;Temp;Humidity;BMP_temperature;BMP_pressure;BME280_temperature;BME280_humidity;BME280_pressure;Samples;Min_cycle;Max_cycle;Signal;HPM_P1;HPM_P2
2024/01/26 00:01:43;;;;;;;11.07;2.97;;;;;;;6.69;100.00;100877.88;5014178;28;20050;-44
2024/01/26 00:04:13;;;;;;;12.20;3.00;;;;;;;6.65;100.00;100873.56;5014229;28;20054;-43
2024/01/26 00:06:45;;;;;;;8.90;2.65;;;;;;;6.57;100.00;100873.00;5014362;28;20054;-43
2024/01/26 00:09:15;;;;;;;9.40;3.42;;;;;;;6.47;100.00;100872.44;5014333;28;20046;-44
2024/01/26 00:11:44;;;;;;;7.20;2.80;;;;;;;6.44;100.00;100879.59;5014078;28;20112;-44
2024/01/26 00:14:13;;;;;;;13.80;3.17;;;;;;;6.27;100.00;100877.50;5013952;28;20050;-43
2024/01/26 00:16:45;;;;;;;10.18;3.05;;;;;;;6.33;100.00;100874.66;5014020;28;20491;-43
2024/01/26 00:19:14;;;;;;;12.47;3.00;;;;;;;6.29;100.00;100880.97;5014075;28;20576;-45
2024/01/26 00:21:48;;;;;;;10.85;3.30;;;;;;;6.20;100.00;100884.78;5014082;28;20295;-43
2024/01/26 00:24:17;;;;;;;11.50;3.08;;;;;;;6.29;100.00;100880.97;5013733;28;20057;-44
2024/01/26 00:26:51;;;;;;;10.10;3.20;;;;;;;6.24;100.00;100882.91;4996728;28;20049;-43
2024/01/26 00:29:19;;;;;;;12.43;3.20;;;;;;;6.20;100.00;100887.44;5013691;28;20618;-44
2024/01/26 00:31:49;;;;;;;12.20;3.45;;;;;;;6.18;100.00;100883.97;5013785;28;20093;-45
2024/01/26 00:34:18;;;;;;;9.15;3.25;;;;;;;6.16;100.00;100885.78;5013729;28;20046;-43
2024/01/26 00:36:46;;;;;;;8.00;2.70;;;;;;;6.03;100.00;100890.63;5014001;28;20054;-44
2024/01/26 00:39:16;;;;;;;12.43;3.03;;;;;;;6.08;100.00;100887.84;5013481;28;20316;-44
2024/01/26 00:41:45;;;;;;;11.52;3.53;;;;;;;6.02;100.00;100894.19;5013789;28;20050;-44
2024/01/26 00:44:14;;;;;;;17.20;3.08;;;;;;;6.04;100.00;100888.84;5013182;28;20514;-43
2024/01/26 00:46:43;;;;;;;9.05;3.03;;;;;;;6.05;100.00;100897.63;5013608;28;20140;-44
2024/01/26 00:49:13;;;;;;;7.15;2.50;;;;;;;6.02;100.00;100893.31;5013384;28;20134;-43
2024/01/26 00:51:42;;;;;;;10.82;2.97;;;;;;;6.06;100.00;100897.59;5013086;28;20534;-43
2024/01/26 00:54:11;;;;;;;11.75;3.17;;;;;;;5.99;100.00;100886.34;5013021;28;20072;-43
2024/01/26 00:56:39;;;;;;;12.23;3.20;;;;;;;5.88;100.00;100882.25;5013113;28;20042;-44
2024/01/26 00:59:07;;;;;;;9.80;2.78;;;;;;;5.97;100.00;100879.34;5013855;28;20821;-44
2024/01/26 01:01:39;;;;;;;9.55;3.00;;;;;;;5.94;100.00;100876.78;5013569;28;20521;-44
2024/01/26 01:04:08;;;;;;;12.50;3.15;;;;;;;5.94;100.00;100876.78;4995461;28;20049;-51
2024/01/26 01:06:40;;;;;;;9.75;3.15;;;;;;;5.98;100.00;100884.63;5012384;28;20072;-43
2024/01/26 01:09:08;;;;;;;10.48;3.10;;;;;;;5.97;100.00;100884.63;5013226;28;20050;-42
2024/01/26 01:11:36;;;;;;;9.10;3.03;;;;;;;5.97;100.00;100889.94;5013004;28;20140;-43
2024/01/26 01:14:05;;;;;;;8.52;3.13;;;;;;;5.97;100.00;100887.28;5012833;28;20506;-42
2024/01/26 01:16:39;;;;;;;10.00;2.92;;;;;;;6.00;100.00;100913.69;5012930;28;20132;-44
2024/01/26 01:19:07;;;;;;;9.70;3.47;;;;;;;5.89;100.00;100910.47;5012888;28;20045;-45
2024/01/26 01:21:40;;;;;;;10.88;3.10;;;;;;;5.81;100.00;100910.69;5013013;28;20128;-43
2024/01/26 01:24:09;;;;;;;14.97;3.10;;;;;;;5.83;100.00;100913.28;5013351;28;20042;-43
2024/01/26 01:26:40;;;;;;;12.95;3.53;;;;;;;5.86;100.00;100924.66;5012622;28;20494;-44
2024/01/26 01:29:08;;;;;;;11.10;3.53;;;;;;;5.89;100.00;100915.78;5012502;28;20080;-44
2024/01/26 01:31:37;;;;;;;6.97;2.97;;;;;;;5.94;100.00;100921.81;5012367;28;20134;-44
2024/01/26 01:34:05;;;;;;;11.52;3.20;;;;;;;5.94;100.00;100920.03;5012478;28;20054;-43
2024/01/26 01:36:36;;;;;;;13.68;3.83;;;;;;;5.96;100.00;100914.69;5013984;28;20104;-44
2024/01/26 01:39:07;;;;;;;13.00;3.90;;;;;;;5.82;100.00;100903.63;5014785;28;20132;-44
2024/01/26 01:41:36;;;;;;;10.68;3.65;;;;;;;5.69;100.00;100900.47;5012309;28;20042;-45
2024/01/26 01:44:07;;;;;;;10.40;3.28;;;;;;;5.77;100.00;100901.09;4994988;28;20068;-44
2024/01/26 01:46:37;;;;;;;14.38;3.63;;;;;;;5.62;100.00;100904.22;5012304;28;20053;-44
2024/01/26 01:49:08;;;;;;;16.60;3.88;;;;;;;5.74;100.00;100898.56;5012261;28;20509;-43
2024/01/26 01:51:37;;;;;;;12.48;3.33;;;;;;;5.72;100.00;100901.25;5012228;28;20046;-45
2024/01/26 01:54:16;;;;;;;10.10;3.42;;;;;;;5.57;100.00;100914.94;5012327;28;20050;-45
2024/01/26 01:56:45;;;;;;;12.85;3.53;;;;;;;5.54;100.00;100906.22;5011361;28;20107;-47
2024/01/26 01:59:15;;;;;;;14.82;3.70;;;;;;;5.56;100.00;100897.31;5011962;28;20188;-45
2024/01/26 02:01:43;;;;;;;12.02;3.28;;;;;;;5.57;100.00;100898.19;5012111;28;20070;-45
2024/01/26 02:04:12;;;;;;;8.80;3.90;;;;;;;5.49;100.00;100898.41;5012183;28;20045;-44
2024/01/26 02:06:41;;;;;;;12.75;3.60;;;;;;;5.40;100.00;100898.66;5011776;28;20050;-44
2024/01/26 02:09:10;;;;;;;11.35;2.97;;;;;;;5.53;100.00;100894.75;5011671;28;20046;-43
2024/01/26 02:11:42;;;;;;;10.20;3.42;;;;;;;5.56;100.00;100899.97;5011847;28;20132;-44
2024/01/26 02:14:10;;;;;;;12.75;3.60;;;;;;;5.39;100.00;100908.38;5011810;28;20046;-45
2024/01/26 02:16:39;;;;;;;9.70;3.25;;;;;;;5.51;100.00;100909.81;5011791;28;20085;-44
2024/01/26 02:19:07;;;;;;;10.75;3.25;;;;;;;5.61;100.00;100910.44;5010832;28;20050;-48
2024/01/26 02:21:35;;;;;;;12.85;3.70;;;;;;;5.60;100.00;100922.78;5011480;28;20050;-44
2024/01/26 02:24:09;;;;;;;10.93;3.80;;;;;;;5.62;100.00;100920.09;5011438;28;20050;-47
2024/01/26 02:26:37;;;;;;;11.55;3.63;;;;;;;5.56;100.00;100905.25;5011838;28;20407;-43
2024/01/26 02:29:06;;;;;;;10.35;4.00;;;;;;;5.57;100.00;100919.34;5011668;28;20046;-44
2024/01/26 02:31:34;;;;;;;11.50;3.55;;;;;;;5.54;100.00;100908.88;5011573;28;20139;-44
2024/01/26 02:34:02;;;;;;;11.93;3.00;;;;;;;5.56;100.00;100904.38;5011347;28;20054;-45
2024/01/26 02:36:38;;;;;;;14.48;3.97;;;;;;;5.58;100.00;100903.41;5011656;28;20411;-44
2024/01/26 02:39:11;;;;;;;10.05;3.45;;;;;;;5.63;100.00;100887.44;5011548;28;20400;-44
2024/01/26 02:41:41;;;;;;;12.63;3.28;;;;;;;5.52;100.00;100893.03;5011699;28;20396;-43
2024/01/26 02:44:12;;;;;;;11.95;3.40;;;;;;;5.45;100.00;100896.75;5011272;28;20396;-43
2024/01/26 02:46:41;;;;;;;12.98;3.83;;;;;;;5.53;100.00;100908.00;5011319;28;20042;-43
2024/01/26 02:49:09;;;;;;;9.23;3.40;;;;;;;5.55;100.00;100908.81;5011396;28;20041;-43
2024/01/26 02:51:40;;;;;;;16.08;3.22;;;;;;;5.57;100.00;100904.34;5011354;28;20410;-44
2024/01/26 02:54:12;;;;;;;7.55;2.92;;;;;;;5.52;100.00;100898.34;5011475;28;20046;-43
2024/01/26 02:56:40;;;;;;;10.07;3.40;;;;;;;5.45;100.00;100908.22;5011345;28;20108;-47
2024/01/26 02:59:08;;;;;;;10.98;3.45;;;;;;;5.45;100.00;100904.69;5011189;28;20419;-44
2024/01/26 03:01:39;;;;;;;11.35;2.92;;;;;;;5.47;100.00;100910.81;5011097;28;20145;-44
2024/01/26 03:04:10;;;;;;;11.15;3.50;;;;;;;5.50;100.00;100910.75;5011272;28;20104;-45
2024/01/26 03:06:39;;;;;;;10.82;3.15;;;;;;;5.37;100.00;100904.91;5011031;28;20061;-45
2024/01/26 03:09:08;;;;;;;13.15;2.95;;;;;;;5.53;100.00;100913.28;5011227;28;20415;-45
2024/01/26 03:11:42;;;;;;;9.32;2.70;;;;;;;5.50;100.00;100918.69;5011004;28;20268;-44
2024/01/26 03:14:11;;;;;;;7.28;3.00;;;;;;;5.53;100.00;100912.44;5010975;28;20403;-45
2024/01/26 03:16:42;;;;;;;9.45;3.00;;;;;;;5.56;100.00;100907.91;4993632;28;20046;-45
2024/01/26 03:19:16;;;;;;;9.40;3.00;;;;;;;5.38;100.00;100903.13;5011060;28;20803;-43
2024/01/26 03:21:48;;;;;;;12.35;3.58;;;;;;;5.38;100.00;100911.06;5011032;28;20046;-45
2024/01/26 03:24:17;;;;;;;8.85;3.05;;;;;;;5.27;100.00;100897.28;5011026;28;20469;-44
2024/01/26 03:26:52;;;;;;;8.20;3.33;;;;;;;5.30;100.00;100898.06;5010864;28;20046;-44
2024/01/26 03:29:20;;;;;;;9.73;2.78;;;;;;;5.38;100.00;100893.41;5010894;28;20462;-45
2024/01/26 03:31:49;;;;;;;7.75;3.30;;;;;;;5.28;100.00;100884.00;5014628;28;20133;-43
2024/01/26 03:34:17;;;;;;;12.27;3.00;;;;;;;5.27;100.00;100887.56;4997378;28;20104;-45
2024/01/26 03:36:47;;;;;;;11.93;3.35;;;;;;;5.14;100.00;100886.19;5014583;28;20054;-45
2024/01/26 03:39:15;;;;;;;9.85;3.28;;;;;;;5.17;100.00;100894.91;4996976;28;20053;-44
2024/01/26 03:41:48;;;;;;;10.77;3.25;;;;;;;4.95;100.00;100896.41;5014701;28;20486;-44
2024/01/26 03:44:16;;;;;;;9.55;3.42;;;;;;;5.04;100.00;100900.56;5014652;28;20151;-45
2024/01/26 03:46:48;;;;;;;8.50;3.03;;;;;;;5.07;100.00;100904.00;5015018;28;20042;-46
2024/01/26 03:49:19;;;;;;;11.50;3.08;;;;;;;5.19;100.00;100916.00;5014542;28;20046;-44
2024/01/26 03:51:50;;;;;;;7.50;2.92;;;;;;;5.20;100.00;100920.38;5014686;28;20057;-44
2024/01/26 03:54:19;;;;;;;9.23;3.55;;;;;;;4.97;100.00;100928.94;5015496;28;20049;-43
2024/01/26 03:56:48;;;;;;;12.35;3.47;;;;;;;5.11;100.00;100945.28;5015107;28;20053;-48
2024/01/26 03:59:17;;;;;;;13.05;3.78;;;;;;;5.16;100.00;100953.13;4998488;28;20050;-44
2024/01/26 04:01:45;;;;;;;11.07;3.60;;;;;;;5.15;100.00;100959.31;5014632;28;20042;-44
2024/01/26 04:04:16;;;;;;;11.65;3.42;;;;;;;5.06;100.00;100968.38;5014134;28;20046;-44
2024/01/26 04:06:54;;;;;;;9.43;3.30;;;;;;;5.07;100.00;100963.94;5014419;28;20042;-43
2024/01/26 04:09:23;;;;;;;8.80;3.22;;;;;;;5.01;100.00;100985.25;5014744;28;20050;-43
2024/01/26 04:11:58;;;;;;;8.90;3.45;;;;;;;5.16;100.00;100984.88;4996720;28;20069;-43
2024/01/26 04:14:27;;;;;;;11.65;3.83;;;;;;;5.23;100.00;101001.44;5014065;28;20050;-44
2024/01/26 04:16:56;;;;;;;9.77;3.63;;;;;;;5.21;100.00;100997.94;5013986;28;20050;-44
2024/01/26 04:19:25;;;;;;;10.20;3.33;;;;;;;5.18;100.00;101002.41;5014099;28;20128;-45
2024/01/26 04:21:54;;;;;;;11.93;3.88;;;;;;;5.21;100.00;100997.94;5014215;28;20060;-43
2024/01/26 04:24:25;;;;;;;7.43;3.20;;;;;;;5.12;100.00;100994.66;5014079;28;20042;-43
2024/01/26 04:26:57;;;;;;;11.02;2.80;;;;;;;5.15;100.00;100999.88;5014020;28;20046;-45
2024/01/26 04:29:26;;;;;;;10.57;3.60;;;;;;;5.07;100.00;101011.53;5013899;28;20057;-44
2024/01/26 04:31:54;;;;;;;9.95;3.05;;;;;;;5.01;100.00;101012.56;4996893;28;20630;-44
2024/01/26 04:34:28;;;;;;;7.70;2.80;;;;;;;5.10;100.00;101012.31;5014454;28;20133;-46
2024/01/26 04:36:57;;;;;;;8.73;3.22;;;;;;;5.11;100.00;101003.47;5015291;28;20053;-44
2024/01/26 04:39:25;;;;;;;13.75;3.80;;;;;;;5.09;100.00;101010.59;5013894;28;20552;-44
2024/01/26 04:41:54;;;;;;;8.82;3.25;;;;;;;5.01;100.00;101012.56;5013256;28;20061;-43
2024/01/26 04:44:25;;;;;;;11.35;3.42;;;;;;;4.98;100.00;101009.13;5013517;28;20145;-43
2024/01/26 04:46:55;;;;;;;9.18;3.28;;;;;;;4.93;100.00;101014.53;4996219;28;20137;-45
2024/01/26 04:49:23;;;;;;;8.10;3.08;;;;;;;4.89;100.00;101010.22;5013610;28;20042;-43
2024/01/26 04:51:52;;;;;;;10.23;3.10;;;;;;;4.86;100.00;101007.66;5013329;28;20126;-44
2024/01/26 04:54:20;;;;;;;10.18;3.20;;;;;;;4.83;100.00;101013.91;5013353;28;20138;-41
2024/01/26 04:56:49;;;;;;;12.00;3.05;;;;;;;4.86;100.00;101012.97;5013349;28;20057;-46
2024/01/26 04:59:19;;;;;;;8.10;2.83;;;;;;;4.86;100.00;101008.53;5013436;28;20052;-43
2024/01/26 05:01:48;;;;;;;10.93;3.33;;;;;;;4.87;100.00;101009.41;5013287;28;20053;-43
2024/01/26 05:04:17;;;;;;;11.52;3.10;;;;;;;4.96;100.00;101005.66;5013179;28;20096;-51
2024/01/26 05:06:45;;;;;;;7.97;3.25;;;;;;;4.78;100.00;101014.91;5012920;28;20042;-44
2024/01/26 05:09:15;;;;;;;7.82;3.10;;;;;;;4.85;100.00;101008.56;5012822;28;20120;-43
2024/01/26 05:11:46;;;;;;;11.57;3.55;;;;;;;4.74;100.00;101002.69;5013339;28;20092;-43
2024/01/26 05:14:17;;;;;;;8.68;3.05;;;;;;;4.73;100.00;101009.75;5013197;28;20052;-42
2024/01/26 05:16:47;;;;;;;9.35;3.22;;;;;;;4.73;100.00;101011.50;5013099;28;20089;-41
2024/01/26 05:19:16;;;;;;;8.88;3.05;;;;;;;4.65;100.00;101022.28;5012972;28;20135;-44
2024/01/26 05:21:45;;;;;;;9.13;2.70;;;;;;;4.63;100.00;101013.50;5012856;28;20115;-42
2024/01/26 05:24:14;;;;;;;9.68;3.13;;;;;;;4.57;100.00;101022.44;5013119;28;20454;-45
2024/01/26 05:26:43;;;;;;;10.63;2.80;;;;;;;4.62;100.00;101013.53;5013031;28;20052;-44
2024/01/26 05:29:14;;;;;;;8.90;2.97;;;;;;;4.63;100.00;101016.13;5012822;28;20239;-43
2024/01/26 05:31:48;;;;;;;12.40;2.97;;;;;;;4.63;100.00;101004.69;5012864;28;20450;-43
2024/01/26 05:34:17;;;;;;;11.13;3.03;;;;;;;4.65;100.00;101002.91;4995547;28;20050;-44
2024/01/26 05:36:46;;;;;;;9.05;3.30;;;;;;;4.55;100.00;101005.75;4995444;28;20046;-43
2024/01/26 05:39:15;;;;;;;12.02;3.88;;;;;;;4.51;100.00;100996.16;5012599;28;20046;-42
2024/01/26 05:41:43;;;;;;;11.88;3.40;;;;;;;4.52;100.00;101004.94;5012422;28;20136;-46
2024/01/26 05:44:12;;;;;;;8.57;3.15;;;;;;;4.60;100.00;101001.22;5012328;28;20054;-43
2024/01/26 05:46:43;;;;;;;10.40;3.20;;;;;;;4.54;100.00;101008.44;5012239;28;20068;-44
2024/01/26 05:49:13;;;;;;;12.60;3.40;;;;;;;4.55;100.00;101013.69;5012594;28;20460;-44
2024/01/26 05:51:42;;;;;;;8.07;3.28;;;;;;;4.53;100.00;101015.47;5012700;28;20050;-44
2024/01/26 05:54:10;;;;;;;8.32;2.90;;;;;;;4.57;100.00;101017.16;5012418;28;20049;-45
2024/01/26 05:56:41;;;;;;;9.60;2.88;;;;;;;4.59;100.00;101020.63;5012183;28;20144;-42
2024/01/26 05:59:09;;;;;;;12.68;3.50;;;;;;;4.60;100.00;101010.94;5012066;28;20136;-44
2024/01/26 06:01:40;;;;;;;9.05;3.22;;;;;;;4.53;100.00;101026.03;4994699;28;20050;-44
2024/01/26 06:04:09;;;;;;;11.23;3.20;;;;;;;4.58;100.00;100995.13;5012164;28;20049;-44
2024/01/26 06:06:44;;;;;;;11.50;3.45;;;;;;;4.65;100.00;101010.84;5012493;28;20049;-45
2024/01/26 06:09:16;;;;;;;11.50;3.53;;;;;;;4.65;100.00;101024.06;5012413;28;20058;-44
2024/01/26 06:11:47;;;;;;;12.50;3.15;;;;;;;4.67;100.00;101031.03;5012217;28;20105;-43
2024/01/26 06:14:16;;;;;;;15.18;3.60;;;;;;;4.69;100.00;101030.97;4995227;28;20053;-42
2024/01/26 06:16:48;;;;;;;13.77;3.53;;;;;;;4.70;100.00;101016.88;5011935;28;20045;-44
2024/01/26 06:19:17;;;;;;;9.23;2.72;;;;;;;4.67;100.00;101006.38;5011818;28;20103;-45
2024/01/26 06:21:47;;;;;;;8.77;2.80;;;;;;;4.67;100.00;101007.25;5011936;28;20045;-44
2024/01/26 06:24:15;;;;;;;13.52;2.80;;;;;;;4.64;100.00;101009.97;5011570;28;20081;-43
2024/01/26 06:26:46;;;;;;;11.02;3.00;;;;;;;4.73;100.00;101022.97;5011657;28;20109;-43
2024/01/26 06:29:17;;;;;;;10.93;3.35;;;;;;;4.79;100.00;101027.22;5011776;28;20447;-45
2024/01/26 06:31:46;;;;;;;8.52;3.22;;;;;;;4.75;100.00;101041.44;5011673;28;20057;-48
2024/01/26 06:34:14;;;;;;;8.65;3.30;;;;;;;4.81;100.00;101038.63;5011637;28;20659;-45
2024/01/26 06:36:42;;;;;;;8.45;3.20;;;;;;;4.88;100.00;101037.56;5011319;28;20411;-44
2024/01/26 06:39:12;;;;;;;8.57;2.92;;;;;;;4.88;100.00;101058.72;5011210;28;20141;-43
2024/01/26 06:41:42;;;;;;;8.70;2.92;;;;;;;4.81;100.00;101047.41;5021443;28;20042;-43
2024/01/26 06:44:13;;;;;;;9.63;3.40;;;;;;;4.87;100.00;101046.41;5031213;28;20080;-45
2024/01/26 06:46:45;;;;;;;9.98;3.60;;;;;;;4.88;100.00;101054.28;5031316;28;20049;-42
2024/01/26 06:49:13;;;;;;;11.50;3.65;;;;;;;4.84;100.00;101065.00;5030890;28;20092;-42
2024/01/26 06:51:45;;;;;;;8.70;3.80;;;;;;;4.70;100.00;101064.44;5029754;28;20115;-43
2024/01/26 06:54:15;;;;;;;12.38;3.30;;;;;;;4.56;100.00;101055.06;5029253;28;20087;-45
2024/01/26 06:56:43;;;;;;;16.02;4.03;;;;;;;4.65;100.00;101061.03;5021950;28;20049;-42
2024/01/26 06:59:12;;;;;;;6.53;2.92;;;;;;;5.51;100.00;101054.50;5029861;28;20092;-42
2024/01/26 07:01:41;;;;;;;9.55;3.42;;;;;;;5.54;100.00;101052.63;5029241;28;20048;-44
2024/01/26 07:04:11;;;;;;;9.65;3.45;;;;;;;5.09;100.00;101055.53;5026121;28;20049;-43
2024/01/26 07:06:40;;;;;;;9.50;3.22;;;;;;;5.10;100.00;101059.06;5033448;28;20049;-43
2024/01/26 07:09:09;;;;;;;11.13;3.58;;;;;;;5.09;100.00;101058.19;5033316;28;20089;-42
2024/01/26 07:11:39;;;;;;;10.35;3.47;;;;;;;4.99;100.00;101061.97;5033328;28;20064;-44
2024/01/26 07:14:08;;;;;;;11.27;3.28;;;;;;;5.11;100.00;101071.38;5032259;28;20050;-44
2024/01/26 07:16:38;;;;;;;13.45;3.95;;;;;;;4.99;100.00;101069.03;5032546;28;20092;-44
2024/01/26 07:19:07;;;;;;;15.27;3.90;;;;;;;5.03;100.00;101068.06;5032383;28;20049;-44
2024/01/26 07:21:36;;;;;;;12.75;4.07;;;;;;;5.06;100.00;101070.63;5033117;28;20084;-45
2024/01/26 07:24:06;;;;;;;9.40;3.50;;;;;;;5.13;100.00;101070.44;5032252;28;20061;-44
2024/01/26 07:26:35;;;;;;;9.18;3.35;;;;;;;5.21;100.00;101061.44;5033377;28;20169;-45
2024/01/26 07:29:05;;;;;;;12.38;4.05;;;;;;;5.25;100.00;101079.84;5037323;28;20478;-41
2024/01/26 07:31:36;;;;;;;11.93;3.63;;;;;;;5.27;100.00;101085.09;5034419;28;20064;-45
2024/01/26 07:34:05;;;;;;;9.45;3.83;;;;;;;5.33;100.00;101080.53;5034665;28;20088;-43
2024/01/26 07:36:36;;;;;;;9.15;3.60;;;;;;;5.32;100.00;101088.50;5034782;28;20049;-45
2024/01/26 07:39:06;;;;;;;12.88;3.72;;;;;;;5.20;100.00;101104.66;5034440;28;20139;-44
2024/01/26 07:41:35;;;;;;;9.02;3.65;;;;;;;5.31;100.00;101097.34;5034386;28;20041;-43
2024/01/26 07:44:05;;;;;;;13.57;4.35;;;;;;;5.22;100.00;101100.22;5034272;28;20060;-42
2024/01/26 07:46:33;;;;;;;16.13;3.80;;;;;;;5.31;100.00;101100.00;5034526;28;20061;-44
2024/01/26 07:49:02;;;;;;;13.38;3.42;;;;;;;5.35;100.00;101106.94;5016881;28;20042;-42
2024/01/26 07:51:32;;;;;;;13.77;4.30;;;;;;;5.44;100.00;101106.72;5034289;28;20053;-44
2024/01/26 07:54:00;;;;;;;10.88;4.45;;;;;;;5.50;100.00;101114.50;5034036;28;20364;-44
2024/01/26 07:56:31;;;;;;;12.13;3.85;;;;;;;5.60;100.00;101116.00;5034157;28;20132;-45
2024/01/26 07:59:07;;;;;;;12.93;3.63;;;;;;;5.35;100.00;101118.38;5034121;28;20388;-43
2024/01/26 08:01:42;;;;;;;13.75;3.88;;;;;;;5.39;100.00;101108.59;5034775;28;20482;-44
2024/01/26 08:04:12;;;;;;;11.70;3.80;;;;;;;5.54;100.00;101108.22;5034265;28;20556;-45
2024/01/26 08:06:41;;;;;;;13.40;4.25;;;;;;;5.44;100.00;101110.22;5033639;28;20438;-44
2024/01/26 08:09:10;;;;;;;9.50;3.80;;;;;;;5.48;100.00;101108.34;5016500;28;20045;-44
2024/01/26 08:11:45;;;;;;;10.18;4.07;;;;;;;5.60;100.00;101109.84;5033719;28;20057;-44
2024/01/26 08:14:13;;;;;;;13.93;4.15;;;;;;;5.78;100.00;101113.75;5033812;28;20507;-44
2024/01/26 08:16:43;;;;;;;10.45;3.33;;;;;;;5.73;100.00;101105.94;5032193;28;20122;-43
2024/01/26 08:19:12;;;;;;;10.38;3.60;;;;;;;5.64;100.00;101101.75;5033226;28;20064;-43
2024/01/26 08:21:41;;;;;;;12.38;4.00;;;;;;;5.66;100.00;101093.78;5033617;28;20456;-43
2024/01/26 08:24:09;;;;;;;11.77;4.28;;;;;;;5.77;100.00;101098.78;5033318;28;20079;-46
2024/01/26 08:26:44;;;;;;;16.83;4.68;;;;;;;5.86;100.00;101095.88;5033404;28;20061;-44
2024/01/26 08:29:13;;;;;;;15.30;3.92;;;;;;;5.82;100.00;101097.75;5033300;28;20046;-43
2024/01/26 08:31:43;;;;;;;12.43;3.85;;;;;;;5.81;100.00;101100.47;5033343;28;20046;-43
2024/01/26 08:34:14;;;;;;;9.27;4.03;;;;;;;5.83;100.00;101090.69;5033586;28;20410;-43
2024/01/26 08:36:42;;;;;;;9.70;3.55;;;;;;;6.00;100.00;101077.88;5030932;28;20061;-42
2024/01/26 08:39:12;;;;;;;12.60;4.07;;;;;;;6.18;100.00;101081.78;5031550;28;20065;-43
2024/01/26 08:41:43;;;;;;;10.77;3.88;;;;;;;6.10;100.00;101081.13;5032164;28;20060;-43
2024/01/26 08:44:14;;;;;;;10.77;3.45;;;;;;;6.06;100.00;101083.00;5032117;28;20057;-43
2024/01/26 08:46:44;;;;;;;12.50;4.20;;;;;;;6.20;100.00;101077.31;5032174;28;20095;-46
2024/01/26 08:49:15;;;;;;;10.20;3.47;;;;;;;6.20;100.00;101077.31;5031253;28;20610;-42
2024/01/26 08:51:44;;;;;;;11.20;4.00;;;;;;;6.34;100.00;101088.34;5032473;28;20132;-42
2024/01/26 08:54:12;;;;;;;13.57;3.80;;;;;;;6.27;100.00;101074.44;5031852;28;20422;-42
2024/01/26 08:56:42;;;;;;;7.38;3.22;;;;;;;6.36;100.00;101091.81;5031914;28;20129;-43
2024/01/26 08:59:10;;;;;;;8.38;3.70;;;;;;;6.29;100.00;101091.16;5030432;28;20056;-44
2024/01/26 09:01:39;;;;;;;14.30;4.35;;;;;;;6.47;100.00;101094.19;5031342;28;20090;-46
2024/01/26 09:04:08;;;;;;;12.73;3.45;;;;;;;6.60;100.00;101103.50;5031703;28;20491;-44
2024/01/26 09:06:37;;;;;;;16.88;3.65;;;;;;;6.59;100.00;101112.38;5031349;28;20045;-44
2024/01/26 09:09:06;;;;;;;12.07;3.95;;;;;;;6.42;100.00;101106.69;5030559;28;20049;-44
2024/01/26 09:11:35;;;;;;;7.55;3.22;;;;;;;6.40;100.00;101101.44;5031485;28;20045;-43
2024/01/26 09:14:06;;;;;;;13.35;3.53;;;;;;;6.51;100.00;101104.63;5032018;28;20041;-42
2024/01/26 09:16:36;;;;;;;10.52;4.15;;;;;;;6.55;100.00;101100.97;5031640;28;20046;-42
2024/01/26 09:19:04;;;;;;;9.35;3.30;;;;;;;6.53;100.00;101091.34;5030181;28;20050;-43
2024/01/26 09:21:37;;;;;;;9.05;3.40;;;;;;;6.78;100.00;101105.59;5031885;28;20057;-42
2024/01/26 09:24:06;;;;;;;11.77;3.58;;;;;;;6.98;100.00;101098.78;5031112;28;20516;-42
2024/01/26 09:26:39;;;;;;;10.30;3.40;;;;;;;7.04;100.00;101101.22;5031201;28;20061;-47
2024/01/26 09:29:07;;;;;;;9.73;3.45;;;;;;;7.08;100.00;101111.72;5029677;28;20053;-44
2024/01/26 09:31:36;;;;;;;8.95;3.35;;;;;;;7.12;100.00;101117.78;5031013;28;20486;-43
2024/01/26 09:34:06;;;;;;;8.80;3.33;;;;;;;7.19;100.00;101114.00;5013938;28;20046;-43
2024/01/26 09:36:34;;;;;;;12.32;3.80;;;;;;;7.18;100.00;101110.50;5031166;28;20045;-44
2024/01/26 09:39:04;;;;;;;8.90;3.13;;;;;;;7.07;100.00;101117.06;5021915;28;20103;-43
2024/01/26 09:41:33;;;;;;;12.80;3.88;;;;;;;7.20;100.00;101118.41;5031156;28;20139;-42
2024/01/26 09:44:03;;;;;;;12.63;3.85;;;;;;;7.29;100.00;101125.19;5031049;28;20050;-41
2024/01/26 09:46:35;;;;;;;13.80;3.53;;;;;;;7.36;100.00;101129.38;5031523;28;20053;-43
2024/01/26 09:49:06;;;;;;;10.48;3.22;;;;;;;7.37;100.00;101120.50;5029663;28;20045;-43
2024/01/26 09:51:34;;;;;;;15.75;3.90;;;;;;;7.53;100.00;101118.19;5031318;28;20048;-44
2024/01/26 09:54:10;;;;;;;13.48;3.63;;;;;;;7.50;100.00;101119.16;5031072;28;20505;-43
2024/01/26 09:56:38;;;;;;;13.02;4.03;;;;;;;7.42;100.00;101110.59;5030298;28;20103;-42
2024/01/26 09:59:11;;;;;;;12.30;3.45;;;;;;;7.31;100.00;101108.28;5032824;28;20096;-44
2024/01/26 10:01:41;;;;;;;10.37;3.27;;;;;;;7.20;100.00;101105.13;5031977;28;20052;-43
2024/01/26 10:04:10;;;;;;;10.57;3.47;;;;;;;7.33;100.00;101101.13;5031445;28;20046;-44
2024/01/26 10:06:40;;;;;;;9.48;3.72;;;;;;;7.36;100.00;101098.41;5030996;28;20434;-43
2024/01/26 10:09:13;;;;;;;6.32;3.00;;;;;;;7.33;100.00;101095.84;5028933;28;20169;-44
2024/01/26 10:11:42;;;;;;;9.52;3.13;;;;;;;7.36;100.00;101095.75;5030257;28;20143;-43
2024/01/26 10:14:20;;;;;;;11.77;3.33;;;;;;;7.36;100.00;101097.53;5030173;28;20057;-44
2024/01/26 10:16:56;;;;;;;7.60;3.28;;;;;;;7.37;100.00;101092.19;5030362;28;20060;-43
2024/01/26 10:19:25;;;;;;;11.13;3.25;;;;;;;7.55;100.00;101103.09;5028975;28;20049;-43
2024/01/26 10:21:55;;;;;;;7.63;3.25;;;;;;;7.36;100.00;101095.75;5030648;28;20053;-44
2024/01/26 10:24:26;;;;;;;16.30;3.95;;;;;;;7.47;100.00;101085.63;4984903;28;20069;-44
2024/01/26 10:26:55;;;;;;;10.88;3.00;;;;;;;7.32;100.00;101094.09;5011277;28;20053;-43
2024/01/26 10:29:24;;;;;;;8.98;2.88;;;;;;;7.24;100.00;101096.16;5011349;28;20482;-43
2024/01/26 10:31:54;;;;;;;7.72;2.92;;;;;;;7.17;100.00;101091.97;5009994;28;20046;-43
2024/01/26 10:34:24;;;;;;;11.57;3.20;;;;;;;7.31;100.00;101089.72;5010851;28;20101;-43
2024/01/26 10:37:01;;;;;;;10.35;2.90;;;;;;;7.36;100.00;101086.91;5011102;28;20054;-43
2024/01/26 10:39:33;;;;;;;8.18;3.40;;;;;;;7.49;100.00;101082.06;5010639;28;20140;-43
2024/01/26 10:42:04;;;;;;;11.82;3.30;;;;;;;7.59;100.00;101086.13;5011602;28;20411;-44
2024/01/26 10:44:37;;;;;;;12.90;3.20;;;;;;;7.44;100.00;101077.78;5011402;28;20438;-46
2024/01/26 10:47:09;;;;;;;9.75;2.97;;;;;;;7.66;100.00;101071.72;5011191;28;20125;-44
2024/01/26 10:49:48;;;;;;;8.95;3.05;;;;;;;7.64;100.00;101081.53;5011151;28;20058;-46
2024/01/26 10:52:20;;;;;;;10.10;2.95;;;;;;;7.72;99.05;101088.31;5011178;28;20042;-44
2024/01/26 10:54:53;;;;;;;8.63;2.50;;;;;;;7.74;97.07;101080.28;5011036;28;20042;-44
2024/01/26 10:57:21;;;;;;;9.88;2.30;;;;;;;7.85;95.72;101083.44;4993559;28;20061;-44
2024/01/26 10:59:50;;;;;;;11.07;2.30;;;;;;;7.87;93.71;101092.22;5011172;28;20046;-43
2024/01/26 11:02:27;;;;;;;5.00;1.92;;;;;;;7.73;92.95;101083.88;5011180;28;20049;-45
2024/01/26 11:05:02;;;;;;;9.10;2.28;;;;;;;7.82;93.26;101093.31;5011646;28;20476;-43
2024/01/26 11:07:37;;;;;;;8.38;2.10;;;;;;;7.94;92.19;101077.78;5011356;28;20050;-43
2024/01/26 11:10:12;;;;;;;6.05;2.28;;;;;;;7.94;92.53;101082.25;5011260;28;20062;-43
2024/01/26 11:12:44;;;;;;;6.32;2.00;;;;;;;7.99;93.21;101078.47;5010978;28;20046;-43
2024/01/26 11:15:14;;;;;;;8.07;2.58;;;;;;;8.00;93.98;101082.84;5011142;28;20054;-47
2024/01/26 11:17:51;;;;;;;7.65;2.10;;;;;;;8.02;93.54;101070.41;5011316;28;20506;-44
2024/01/26 11:20:29;;;;;;;9.57;2.80;;;;;;;8.28;92.99;101066.75;5011780;28;20475;-44
2024/01/26 11:23:02;;;;;;;11.00;2.67;;;;;;;8.29;94.32;101059.66;5013296;28;20056;-45
2024/01/26 11:25:38;;;;;;;9.27;2.57;;;;;;;8.52;94.62;101065.00;5013141;28;20118;-45
2024/01/26 11:28:10;;;;;;;8.88;2.60;;;;;;;8.51;92.71;101060.63;5011863;28;20137;-44
2024/01/26 11:30:41;;;;;;;11.18;3.13;;;;;;;8.50;93.08;101058.88;5011766;28;20157;-44
2024/01/26 11:33:16;;;;;;;10.05;2.65;;;;;;;8.38;93.91;101054.03;5011253;28;20057;-43
2024/01/26 11:35:45;;;;;;;11.23;3.20;;;;;;;8.43;94.65;101044.09;5010868;28;20050;-48